»·PEaware :: SKW5909 KSFO-KSBA

SKW5909 :: KSFO-KSBA

FLIGHT INFORMATION

Flight Status: Arrived
Operator:
SkyWest Airlines
More flights by this operator :: More flights under this callsign
Pilot: Gabriel S. (32862)
Aircraft: EMBRAER EMB-170/175
(E170)
More flights by this aircraft type
Origin: KSFO San Francisco Intl
United States
Destination: KSBA Santa Barbara Mun
United States
More flights between these airports :: More routes between these airports
Route: SSTIK4 YYUNG GVO HABUT
File this flight plan on PilotEdge
Remarks: RMK / SIMBRIEF
Altitude:
(Current/Filed)
31,000ft
Speed:
(Current/Filed)
411kts
Departed: 06-Mar-21 11:08 AM
Arrived: 06-Mar-21 11:55 AM
Distance/Time
Traveled:
228nm/0:47
Distance/Time
To Go:
Arrived

Flight Plot

Page will automatically refresh every two minutes.

Flight plan parsing failed; only flown route is shown


Map Options




Map Legend


Flown Route
Filed Route
Departure Airport
Arrival Airport
Navaid (VOR, NDB)
Fix

Horizontal Profiles

Position Reports

Time Latitude Longitude Heading Altitude Ground
Speed
06-Mar-21 10:48 37.619202 -122.383569 291 15ft 0kts
06-Mar-21 10:49 37.619202 -122.383569 291 15ft 0kts
06-Mar-21 10:50 37.619202 -122.383569 291 14ft 0kts
06-Mar-21 10:51 37.619202 -122.383569 291 14ft 0kts
06-Mar-21 10:51 37.619202 -122.383569 291 14ft 0kts
06-Mar-21 10:53 37.619202 -122.383569 291 14ft 0kts
06-Mar-21 10:54 37.619202 -122.383569 291 14ft 0kts
06-Mar-21 10:55 37.619202 -122.383569 291 14ft 0kts
06-Mar-21 10:55 37.619202 -122.383569 291 14ft 0kts
06-Mar-21 10:56 37.619202 -122.383569 291 14ft 0kts
06-Mar-21 10:58 37.619202 -122.383569 291 14ft 0kts
06-Mar-21 10:59 37.619104 -122.383245 291 15ft 2kts
06-Mar-21 10:59 37.618730 -122.383069 30 15ft 0kts
06-Mar-21 11:01 37.618727 -122.383071 30 15ft 0kts
06-Mar-21 11:01 37.618727 -122.383071 30 15ft 0kts
06-Mar-21 11:02 37.619149 -122.382771 28 14ft 7kts
06-Mar-21 11:03 37.617811 -122.379496 169 15ft 19kts
06-Mar-21 11:05 37.612248 -122.382525 207 14ft 15kts
06-Mar-21 11:05 37.609554 -122.384531 216 15ft 12kts
06-Mar-21 11:06 37.609048 -122.382180 27 15ft 19kts
06-Mar-21 11:07 37.638739 -122.362661 21 1117ft 156kts
06-Mar-21 11:08 37.686678 -122.362368 352 2596ft 205kts
06-Mar-21 11:09 37.710247 -122.431307 262 4316ft 266kts
06-Mar-21 11:10 37.687176 -122.514749 199 7030ft 275kts
06-Mar-21 11:11 37.609462 -122.509794 174 9564ft 288kts
06-Mar-21 11:12 37.529312 -122.497831 161 11216ft 298kts
06-Mar-21 11:13 37.441501 -122.483666 185 12730ft 336kts
06-Mar-21 11:14 37.348310 -122.499854 195 14920ft 344kts
06-Mar-21 11:15 37.252215 -122.518195 195 17023ft 356kts
06-Mar-21 11:16 37.153041 -122.536687 195 19297ft 366kts
06-Mar-21 11:17 37.050980 -122.555649 195 21482ft 375kts
06-Mar-21 11:18 36.946180 -122.523915 157 23270ft 411kts
06-Mar-21 11:19 36.850880 -122.451136 154 25414ft 402kts
06-Mar-21 11:20 36.754101 -122.378549 154 26618ft 410kts
06-Mar-21 11:21 36.655205 -122.306293 154 27775ft 414kts
06-Mar-21 11:22 36.554906 -122.233377 154 28771ft 420kts
06-Mar-21 11:23 36.453772 -122.159923 153 29641ft 424kts
06-Mar-21 11:24 36.351032 -122.085542 153 30409ft 429kts
06-Mar-21 11:25 36.247498 -122.010839 153 31095ft 433kts
06-Mar-21 11:26 36.140590 -121.934004 153 31216ft 444kts
06-Mar-21 11:27 36.033312 -121.856994 153 31220ft 446kts
06-Mar-21 11:28 35.936051 -121.760215 138 31203ft 453kts
06-Mar-21 11:29 35.848845 -121.651074 137 31174ft 452kts
06-Mar-21 11:30 35.759009 -121.542001 138 31168ft 452kts
06-Mar-21 11:31 35.679016 -121.445880 138 31167ft 452kts
06-Mar-21 11:32 35.594447 -121.344321 138 31167ft 452kts
06-Mar-21 11:33 35.504936 -121.235764 138 30616ft 453kts
06-Mar-21 11:34 35.414447 -121.127038 138 29412ft 456kts
06-Mar-21 11:35 35.320309 -121.015238 138 27218ft 470kts
06-Mar-21 11:36 35.229622 -120.907372 138 24844ft 436kts
06-Mar-21 11:37 35.144505 -120.806748 138 24087ft 426kts
06-Mar-21 11:38 35.058408 -120.705527 138 23558ft 434kts
06-Mar-21 11:39 34.973736 -120.605848 137 20197ft 412kts
06-Mar-21 11:40 34.892857 -120.511056 137 17014ft 396kts
06-Mar-21 11:41 34.816585 -120.423040 139 13790ft 358kts
06-Mar-21 11:42 34.747833 -120.343264 139 11375ft 327kts
06-Mar-21 11:43 34.687039 -120.271689 137 9395ft 297kts
06-Mar-21 11:44 34.629542 -120.204714 137 8576ft 281kts
06-Mar-21 11:45 34.572920 -120.139116 137 7555ft 280kts
06-Mar-21 11:46 34.507802 -120.093197 175 6566ft 271kts
06-Mar-21 11:47 34.433425 -120.089061 183 4822ft 266kts
06-Mar-21 11:48 34.359233 -120.088632 168 3570ft 267kts
06-Mar-21 11:49 34.346954 -120.018980 52 2464ft 249kts
06-Mar-21 11:50 34.394367 -119.966759 27 1362ft 190kts
06-Mar-21 11:51 34.424525 -119.935942 72 1016ft 127kts
06-Mar-21 11:52 34.426848 -119.891430 91 657ft 135kts
06-Mar-21 11:53 34.427646 -119.847652 87 14ft 110kts
06-Mar-21 11:54 34.426766 -119.838374 165 15ft 6kts
06-Mar-21 11:55 34.424352 -119.837311 106 14ft 5kts

Navigation Log

Ident Type
Flight plan parsing failed, navigation log unavailable